Casper-Natrona County International Airport
KCPR : rendu visible

Aérodrome :











RETROUVEZ-NOUS SUR...

 
LOGIN :

S'inscrire | Disclaimer

   EN    FR    IT 

 









Légende :    VFR   VFR Marginal   IFR   IFR Intensif   IFR Très Intensif
Visi : 
Plafond : 
>= 8 km
>= 3000ft
5 à 8 km
1000 à 3000 ft
1500m à 5 km
500 à 1000 ft
800 à 1500m
200 à 500 ft
< 800m
< 200 ft
Symboles :   Orages  Brouillard  Fortes neiges  Fortes précipitations  Vent > 20 kt






- Altitude de l'aérodrome : 5350 ft
- Code IATA : CPR


KCPR - Casper-Natrona County International

DERNIER METAR :
  • 222253Z 21019G26KT 10SM CLR 00/M06 A2998 RMK AO2 PK WND 21029/2226 SLP187 T00001061

METARs EXPIRÉS :
  • 222153Z 21017G26KT 10SM CLR 01/M06 A2997 RMK AO2 PK WND 23029/2136 SLP181 T00061056
  • 222053Z 22023G33KT 10SM CLR 00/M06 A2997 RMK AO2 PK WND 21033/2052 SNB22E31 SLP182 P0000 60000 T00001056 56012

TAF KCPR
Valide du 22 à 18h jusqu'au 23 à 18h UTC


221730Z 2218/2318 22020G28KT P6SM SKC
FM230100 22015KT P6SM SKC
FM231000 22020G30KT P6SM SKC



MET'MAP, la Météo Aéronautique d'un coup d'oeil ! - Copyright ORBIFLY Décembre 2007 - Disclaimer

ORBIFLY MET'MAP TEAM :

Programmation & Développement : Alexandra Zaïnal
Conception & Développement : Baudouin d'Aumeries
Co-Programmation & Développement : Marc-Olivier Méhu
Soutien technique & logistique : Manuel Goepfert

Contact : metmap@orbifly.com




SOURCES & CREDITS :

   NOAA       Earth
Advisory